createdAt,value
2022-11-26T00:02:29.340Z,80.13
2022-11-26T00:04:57.226Z,79.76
2022-11-26T00:07:26.850Z,79.15
2022-11-26T00:09:54.794Z,80.31
2022-11-26T00:12:29.878Z,80.07
2022-11-26T00:14:56.934Z,80.24
2022-11-26T00:17:23.866Z,80.47
2022-11-26T00:19:50.880Z,80.34
2022-11-26T00:22:25.812Z,79.83
2022-11-26T00:24:53.144Z,79.91
2022-11-26T00:27:20.095Z,80.41
2022-11-26T00:29:47.104Z,80.66
2022-11-26T00:32:18.150Z,79.57
2022-11-26T00:34:45.184Z,80.21
2022-11-26T00:37:35.834Z,79.29
2022-11-26T00:40:02.852Z,80.11
2022-11-26T00:42:29.775Z,80.47
2022-11-26T00:44:56.727Z,80.18
2022-11-26T00:47:23.722Z,80.70
2022-11-26T00:49:50.797Z,80.04
2022-11-26T00:52:33.646Z,80.26
2022-11-26T00:55:01.888Z,80.52
2022-11-26T00:57:28.787Z,80.71
2022-11-26T00:59:55.814Z,80.48
2022-11-26T01:02:22.849Z,80.53
2022-11-26T01:04:49.876Z,80.13
2022-11-26T01:07:16.836Z,80.34
2022-11-26T01:09:44.294Z,80.55
2022-11-26T01:12:14.606Z,80.15
2022-11-26T01:14:41.633Z,80.19
2022-11-26T01:17:11.176Z,79.91
2022-11-26T01:19:38.155Z,80.35
2022-11-26T01:22:05.110Z,80.09
2022-11-26T01:24:37.848Z,79.50
2022-11-26T01:27:09.317Z,80.20
2022-11-26T01:29:36.308Z,80.20
2022-11-26T01:32:03.375Z,79.92
2022-11-26T01:34:30.442Z,79.88
2022-11-26T01:36:57.488Z,80.82
2022-11-26T01:39:25.059Z,79.73
2022-11-26T01:42:00.944Z,79.66
2022-11-26T01:44:29.891Z,80.05
2022-11-26T01:46:57.236Z,80.58
2022-11-26T01:49:25.253Z,80.24
2022-11-26T01:51:59.443Z,80.27
2022-11-26T01:54:26.433Z,80.13
2022-11-26T01:56:54.811Z,79.47
2022-11-26T01:59:29.880Z,80.17
2022-11-26T02:01:58.176Z,79.74
2022-11-26T02:04:28.801Z,80.06
2022-11-26T02:06:56.362Z,80.66
2022-11-26T02:09:23.925Z,80.73
2022-11-26T02:11:50.857Z,80.12
2022-11-26T02:14:20.114Z,80.32
2022-11-26T02:17:24.582Z,79.51
2022-11-26T02:20:03.727Z,80.52
2022-11-26T02:22:51.364Z,80.24
2022-11-26T02:25:44.459Z,80.35
2022-11-26T02:28:48.009Z,80.36
2022-11-26T02:31:26.244Z,80.43
2022-11-26T02:34:15.633Z,81.00
2022-11-26T02:37:04.437Z,79.39
2022-11-26T02:39:31.901Z,80.67
2022-11-26T02:42:00.434Z,80.52
2022-11-26T02:44:54.590Z,79.67
2022-11-26T02:47:21.863Z,80.15
2022-11-26T02:49:48.853Z,81.54
2022-11-26T02:52:15.912Z,80.32
2022-11-26T02:54:42.983Z,81.10
2022-11-26T02:57:12.179Z,81.48
2022-11-26T02:59:39.143Z,80.95
2022-11-26T03:02:25.114Z,80.73
2022-11-26T03:04:53.587Z,80.71
2022-11-26T03:07:20.573Z,81.41
2022-11-26T03:09:58.291Z,79.81
2022-11-26T03:12:25.356Z,80.53
2022-11-26T03:14:52.332Z,80.69
2022-11-26T03:17:19.352Z,80.20
2022-11-26T03:19:46.657Z,80.13
2022-11-26T03:22:14.049Z,80.82
2022-11-26T03:24:41.455Z,80.39
2022-11-26T03:27:08.496Z,80.66
2022-11-26T03:29:35.499Z,80.25
2022-11-26T03:32:02.525Z,80.57
2022-11-26T03:34:29.561Z,80.87
2022-11-26T03:36:56.569Z,80.56
2022-11-26T03:39:23.622Z,80.63
2022-11-26T03:41:50.529Z,81.23
2022-11-26T03:44:17.602Z,80.78
2022-11-26T03:46:44.562Z,80.23
2022-11-26T03:49:11.662Z,80.55
2022-11-26T03:51:38.619Z,80.20
2022-11-26T03:54:05.627Z,79.98
2022-11-26T03:56:32.591Z,81.28
2022-11-26T03:58:59.592Z,80.91
2022-11-26T04:01:26.576Z,80.42
2022-11-26T04:03:53.602Z,80.19
2022-11-26T04:06:20.783Z,80.79
2022-11-26T04:08:47.778Z,80.92
2022-11-26T04:11:14.739Z,80.66
2022-11-26T04:13:41.873Z,80.62
2022-11-26T04:16:09.078Z,80.48
2022-11-26T04:18:36.247Z,81.54
2022-11-26T04:21:04.340Z,80.76
2022-11-26T04:23:31.325Z,80.59
2022-11-26T04:25:58.272Z,80.59
2022-11-26T04:28:25.256Z,81.10
2022-11-26T04:30:52.303Z,80.31
2022-11-26T04:33:19.236Z,80.12
2022-11-26T04:35:46.224Z,80.13
2022-11-26T04:38:13.172Z,80.96
2022-11-26T04:40:40.207Z,80.12
2022-11-26T04:43:07.263Z,80.67
2022-11-26T04:45:34.266Z,80.52
2022-11-26T04:48:01.413Z,80.85
2022-11-26T04:50:28.625Z,80.53
2022-11-26T04:52:55.749Z,80.51
2022-11-26T04:55:22.790Z,81.37
2022-11-26T04:57:49.922Z,80.74
2022-11-26T05:00:17.613Z,80.38
2022-11-26T05:02:44.899Z,80.82
2022-11-26T05:05:12.328Z,81.38
2022-11-26T05:07:39.332Z,80.75
2022-11-26T05:10:07.553Z,81.51
2022-11-26T05:12:34.871Z,80.97
2022-11-26T05:15:02.992Z,81.40
2022-11-26T05:17:30.050Z,81.29
2022-11-26T05:19:57.030Z,81.49
2022-11-26T05:22:24.000Z,80.38
2022-11-26T05:24:50.985Z,80.91
2022-11-26T05:27:17.943Z,81.12
2022-11-26T05:29:44.974Z,81.22
2022-11-26T05:32:12.226Z,81.38
2022-11-26T05:34:39.318Z,80.74
2022-11-26T05:37:06.419Z,81.14
2022-11-26T05:39:33.412Z,80.91
2022-11-26T05:42:03.575Z,80.59
2022-11-26T05:44:33.396Z,80.88
2022-11-26T05:47:00.310Z,81.53
2022-11-26T05:49:27.329Z,81.28
2022-11-26T05:51:54.330Z,81.33
2022-11-26T05:54:21.477Z,80.68
2022-11-26T05:56:48.391Z,80.35
2022-11-26T05:59:15.414Z,81.31
2022-11-26T06:01:42.356Z,81.86
2022-11-26T06:04:09.322Z,81.14
2022-11-26T06:06:36.304Z,81.18
2022-11-26T06:09:03.597Z,81.36
2022-11-26T06:11:30.743Z,80.99
2022-11-26T06:13:57.681Z,80.60
2022-11-26T06:16:24.723Z,80.82
2022-11-26T06:18:51.789Z,81.50
2022-11-26T06:21:19.454Z,80.87
2022-11-26T06:23:54.266Z,81.06
2022-11-26T06:26:24.902Z,80.74
2022-11-26T06:28:51.921Z,80.54
2022-11-26T06:31:19.074Z,80.81
2022-11-26T06:33:46.149Z,81.38
2022-11-26T06:36:13.176Z,80.83
2022-11-26T06:38:40.235Z,80.77
2022-11-26T06:41:08.199Z,80.78
2022-11-26T06:43:35.607Z,80.91
2022-11-26T06:46:07.875Z,80.54
2022-11-26T06:48:35.429Z,81.24
2022-11-26T06:51:11.483Z,80.69
2022-11-26T06:53:38.627Z,81.25
2022-11-26T06:56:07.583Z,80.92
2022-11-26T06:58:34.713Z,81.34
2022-11-26T07:01:10.943Z,80.84
2022-11-26T07:03:38.604Z,81.46
2022-11-26T07:06:05.823Z,80.63
2022-11-26T07:08:32.944Z,81.08
2022-11-26T07:11:03.803Z,80.91
2022-11-26T07:13:31.175Z,81.87
2022-11-26T07:16:03.045Z,80.79
2022-11-26T07:18:30.086Z,81.26
2022-11-26T07:20:57.364Z,81.33
2022-11-26T07:23:24.953Z,80.51
2022-11-26T07:25:52.060Z,81.48
2022-11-26T07:28:19.146Z,81.73
2022-11-26T07:30:46.348Z,81.03
2022-11-26T07:33:13.551Z,81.23
2022-11-26T07:35:40.498Z,81.42
2022-11-26T07:38:07.449Z,80.93
2022-11-26T07:40:34.462Z,81.19
2022-11-26T07:43:01.420Z,81.34
2022-11-26T07:45:30.447Z,80.86
2022-11-26T07:48:00.658Z,80.92
2022-11-26T07:50:34.309Z,81.74
2022-11-26T07:53:16.080Z,80.97
2022-11-26T07:55:44.404Z,81.71
2022-11-26T07:58:12.581Z,81.32
2022-11-26T08:00:44.183Z,81.24
2022-11-26T08:03:11.470Z,80.94
2022-11-26T08:05:42.635Z,80.78
2022-11-26T08:08:12.544Z,81.07
2022-11-26T08:10:40.679Z,81.00
2022-11-26T08:13:10.713Z,81.06
2022-11-26T08:15:37.947Z,81.25
2022-11-26T08:18:07.252Z,81.25
2022-11-26T08:20:35.429Z,81.92
2022-11-26T08:23:07.266Z,81.32
2022-11-26T08:25:35.886Z,80.93
2022-11-26T08:28:06.534Z,81.59
2022-11-26T08:30:34.664Z,80.76
2022-11-26T08:33:09.422Z,81.37
2022-11-26T08:36:05.645Z,81.20
2022-11-26T08:38:27.717Z,80.87
2022-11-26T08:40:56.971Z,80.97
2022-11-26T08:43:34.658Z,81.36
2022-11-26T08:46:44.436Z,80.58
2022-11-26T08:49:15.210Z,81.20
2022-11-26T08:51:43.596Z,81.03
2022-11-26T08:54:26.493Z,80.76
2022-11-26T08:57:24.610Z,80.98
2022-11-26T09:00:00.349Z,81.10
2022-11-26T09:02:31.086Z,81.45
2022-11-26T09:05:10.415Z,81.19
2022-11-26T09:07:59.366Z,81.14
2022-11-26T09:18:38.155Z,80.85
2022-11-26T09:20:57.121Z,81.45
2022-11-26T09:24:20.882Z,81.62
2022-11-26T09:30:19.703Z,81.68
2022-11-26T09:32:47.214Z,81.29
2022-11-26T09:35:36.319Z,81.46
2022-11-26T09:39:33.918Z,80.58
2022-11-26T09:49:58.334Z,81.31
2022-11-26T09:52:32.844Z,81.67
2022-11-26T09:55:15.647Z,81.64
2022-11-26T09:57:44.899Z,81.27
2022-11-26T10:00:37.368Z,80.47
2022-11-26T10:03:14.854Z,80.80
2022-11-26T10:09:06.240Z,80.79
2022-11-26T10:13:03.436Z,81.26
2022-11-26T10:14:50.831Z,81.67
2022-11-26T10:18:31.150Z,82.06
2022-11-26T10:22:24.468Z,81.45
2022-11-26T10:29:09.397Z,82.61
2022-11-26T10:34:11.839Z,82.43
2022-11-26T10:59:38.745Z,82.63
2022-11-26T11:01:09.109Z,83.25
2022-11-26T11:04:11.951Z,82.27
2022-11-26T11:06:42.721Z,82.83
2022-11-26T11:09:42.867Z,82.79
2022-11-26T11:24:06.984Z,82.57
2022-11-26T11:28:49.163Z,82.58
2022-11-26T11:31:40.580Z,82.42
2022-11-26T11:40:26.943Z,82.27
2022-11-26T11:54:12.234Z,82.76
2022-11-26T11:56:46.097Z,82.80
2022-11-26T11:59:41.371Z,82.82
2022-11-26T12:02:39.057Z,82.59
2022-11-26T12:05:34.366Z,82.75
2022-11-26T12:08:41.283Z,82.03
2022-11-26T12:11:40.868Z,81.82
2022-11-26T12:14:46.261Z,82.08
2022-11-26T12:17:33.083Z,81.62
2022-11-26T12:20:27.672Z,81.37
2022-11-26T12:23:30.292Z,81.92
2022-11-26T12:26:28.572Z,82.18
2022-11-26T12:29:26.610Z,81.91
2022-11-26T12:33:42.043Z,81.32
2022-11-26T12:39:23.361Z,81.66
2022-11-26T12:42:51.300Z,81.75
2022-11-26T12:45:54.480Z,81.69
2022-11-26T12:48:33.034Z,82.61
2022-11-26T12:51:32.617Z,82.22
2022-11-26T12:54:23.413Z,81.52
2022-11-26T12:57:11.309Z,81.84
2022-11-26T13:00:00.090Z,81.53
2022-11-26T13:02:35.414Z,82.08
2022-11-26T13:05:02.725Z,82.05
2022-11-26T13:07:57.462Z,81.59
2022-11-26T13:10:32.209Z,82.23
2022-11-26T13:13:08.198Z,82.33
2022-11-26T13:15:42.236Z,82.22
2022-11-26T13:18:24.046Z,81.92
2022-11-26T13:21:35.946Z,81.66
2022-11-26T13:24:17.434Z,81.39
2022-11-26T13:27:22.990Z,81.25
2022-11-26T13:30:02.091Z,81.59
2022-11-26T13:32:38.310Z,81.32
2022-11-26T13:35:20.249Z,81.18
2022-11-26T13:38:10.488Z,81.32
2022-11-26T13:40:58.867Z,81.80
2022-11-26T13:43:26.135Z,82.17
2022-11-26T13:45:58.804Z,82.50
2022-11-26T13:48:52.398Z,82.05
2022-11-26T13:51:27.633Z,82.36
2022-11-26T13:53:59.172Z,81.93
2022-11-26T13:56:32.403Z,81.80
2022-11-26T13:59:08.853Z,81.41
2022-11-26T14:01:40.479Z,81.80
2022-11-26T14:04:09.021Z,81.68
2022-11-26T14:06:36.967Z,81.39
2022-11-26T14:09:06.959Z,81.28
2022-11-26T14:11:54.642Z,80.96
2022-11-26T14:14:29.416Z,80.90
2022-11-26T14:17:00.844Z,80.98
2022-11-26T14:19:40.423Z,81.43
2022-11-26T14:22:08.788Z,81.67
2022-11-26T14:24:53.383Z,80.80
2022-11-26T14:27:31.028Z,81.49
2022-11-26T14:30:07.061Z,80.89
2022-11-26T14:33:04.042Z,81.56
2022-11-26T14:35:34.386Z,80.96
2022-11-26T14:38:03.616Z,81.78
2022-11-26T14:40:37.979Z,80.72
2022-11-26T14:43:11.247Z,81.06
2022-11-26T14:45:38.336Z,81.65
2022-11-26T14:48:05.635Z,81.77
2022-11-26T14:50:33.339Z,81.74
2022-11-26T14:53:03.568Z,81.12
2022-11-26T14:55:31.167Z,81.39
2022-11-26T14:58:08.643Z,81.07
2022-11-26T15:00:40.139Z,81.45
2022-11-26T15:03:27.911Z,80.96
2022-11-26T15:05:54.951Z,80.85
2022-11-26T15:08:24.391Z,81.17
2022-11-26T15:14:03.926Z,81.45
2022-11-26T15:20:42.946Z,81.54
2022-11-26T15:23:26.853Z,81.27
2022-11-26T15:26:00.192Z,82.00
2022-11-26T15:28:42.555Z,81.74
2022-11-26T15:31:10.209Z,81.89
2022-11-26T15:33:38.077Z,81.93
2022-11-26T15:36:06.038Z,81.99
2022-11-26T15:38:34.357Z,81.91
2022-11-26T15:41:06.970Z,81.55
2022-11-26T15:43:47.824Z,81.56
2022-11-26T15:46:19.337Z,81.39
2022-11-26T15:48:59.894Z,81.73
2022-11-26T15:51:35.507Z,82.38
2022-11-26T15:54:16.320Z,81.32
2022-11-26T15:56:43.355Z,82.19
2022-11-26T15:59:31.842Z,81.58
2022-11-26T16:05:51.586Z,82.10
2022-11-26T16:08:32.063Z,81.61
2022-11-26T16:11:11.970Z,82.16
2022-11-26T16:13:41.775Z,82.09
2022-11-26T16:16:29.285Z,81.52
2022-11-26T16:19:00.488Z,81.54
2022-11-26T16:21:29.752Z,81.96
2022-11-26T16:23:59.761Z,81.91
2022-11-26T16:26:27.157Z,82.05
2022-11-26T16:28:54.249Z,82.28
2022-11-26T16:31:21.473Z,82.13
2022-11-26T16:33:48.601Z,82.32
2022-11-26T16:36:22.344Z,81.75
2022-11-26T16:38:49.195Z,82.09
2022-11-26T16:41:17.333Z,83.00
2022-11-26T16:43:44.608Z,82.64
2022-11-26T16:46:18.993Z,82.36
2022-11-26T16:48:46.253Z,82.69
2022-11-26T16:51:13.277Z,81.90
2022-11-26T16:53:40.217Z,82.51
2022-11-26T16:56:07.707Z,81.92
2022-11-26T16:58:35.765Z,81.89
2022-11-26T17:01:02.737Z,82.57
2022-11-26T17:03:33.278Z,82.04
2022-11-26T17:06:02.643Z,82.08
2022-11-26T17:08:30.246Z,82.44
2022-11-26T17:10:57.609Z,81.98
2022-11-26T17:13:25.479Z,82.22
2022-11-26T17:15:54.727Z,82.21
2022-11-26T17:18:25.540Z,81.97
2022-11-26T17:20:53.366Z,82.59
2022-11-26T17:23:20.361Z,82.17
2022-11-26T17:25:51.564Z,82.03
2022-11-26T17:28:18.569Z,81.84
2022-11-26T17:30:47.500Z,82.18
2022-11-26T17:33:14.527Z,81.37
2022-11-26T17:35:47.224Z,82.16
2022-11-26T17:38:18.198Z,82.45
2022-11-26T17:40:46.466Z,82.18
2022-11-26T17:43:17.284Z,81.62
2022-11-26T17:45:44.362Z,82.21
2022-11-26T17:48:17.295Z,82.38
2022-11-26T17:50:57.524Z,81.57
2022-11-26T17:53:24.632Z,82.19
2022-11-26T17:55:53.624Z,82.42
2022-11-26T17:58:20.806Z,82.61
2022-11-26T18:00:47.760Z,82.33
2022-11-26T18:03:14.780Z,81.86
2022-11-26T18:05:42.467Z,82.05
2022-11-26T18:08:10.826Z,82.54
2022-11-26T18:10:39.613Z,82.06
2022-11-26T18:13:06.720Z,82.18
2022-11-26T18:15:33.881Z,81.87
2022-11-26T18:18:00.934Z,82.45
2022-11-26T18:20:28.339Z,82.53
2022-11-26T18:22:57.087Z,82.58
2022-11-26T18:25:24.300Z,82.55
2022-11-26T18:27:51.898Z,82.55
2022-11-26T18:30:19.408Z,82.64
2022-11-26T18:32:46.418Z,82.09
2022-11-26T18:35:13.685Z,82.01
2022-11-26T18:37:40.881Z,82.55
2022-11-26T18:40:09.202Z,82.13
2022-11-26T18:42:37.885Z,82.05
2022-11-26T18:45:07.112Z,82.28
2022-11-26T18:47:35.221Z,82.46
2022-11-26T18:50:04.912Z,81.84
2022-11-26T18:52:31.894Z,82.59
2022-11-26T18:55:00.140Z,81.84
2022-11-26T18:57:27.714Z,81.97
2022-11-26T18:59:54.809Z,81.98
2022-11-26T19:02:21.900Z,82.15
2022-11-26T19:04:49.072Z,81.89
2022-11-26T19:07:16.129Z,81.99
2022-11-26T19:09:43.481Z,81.75
2022-11-26T19:12:12.604Z,82.36
2022-11-26T19:14:39.655Z,82.42
2022-11-26T19:17:06.679Z,82.77
2022-11-26T19:19:33.779Z,82.38
2022-11-26T19:22:01.824Z,82.75
2022-11-26T19:24:29.823Z,81.88
2022-11-26T19:26:57.380Z,82.07
2022-11-26T19:29:24.460Z,82.39
2022-11-26T19:31:51.456Z,82.11
2022-11-26T19:34:18.523Z,82.59
2022-11-26T19:36:48.768Z,82.09
2022-11-26T19:39:16.190Z,82.05
2022-11-26T19:41:43.382Z,83.05
2022-11-26T19:44:10.439Z,82.82
2022-11-26T19:46:41.099Z,82.49
2022-11-26T19:49:11.050Z,82.39
2022-11-26T19:51:37.965Z,82.53
2022-11-26T19:54:05.232Z,82.40
2022-11-26T19:56:32.404Z,81.80
2022-11-26T19:59:00.742Z,82.09
2022-11-26T20:01:30.688Z,81.92
2022-11-26T20:03:59.565Z,82.20
2022-11-26T20:06:27.319Z,81.56
2022-11-26T20:08:54.678Z,82.51
2022-11-26T20:11:22.057Z,82.84
2022-11-26T20:13:49.177Z,82.44
2022-11-26T20:16:21.125Z,82.37
2022-11-26T20:18:48.273Z,82.17
2022-11-26T20:21:19.834Z,82.16
2022-11-26T20:23:47.195Z,82.28
2022-11-26T20:26:18.152Z,81.69
2022-11-26T20:28:45.369Z,82.52
2022-11-26T20:31:13.022Z,82.47
2022-11-26T20:33:40.040Z,81.74
2022-11-26T20:36:08.401Z,81.74
2022-11-26T20:38:35.674Z,81.86
2022-11-26T20:41:09.858Z,81.47
2022-11-26T20:43:36.991Z,82.04
2022-11-26T20:46:05.457Z,82.19
2022-11-26T20:48:32.957Z,82.29
2022-11-26T20:51:03.927Z,82.38
2022-11-26T20:53:31.010Z,82.16
2022-11-26T20:55:57.991Z,81.82
2022-11-26T20:58:25.405Z,82.43
2022-11-26T21:00:54.278Z,82.47
2022-11-26T21:03:25.142Z,81.91
2022-11-26T21:05:52.312Z,81.73
2022-11-26T21:08:19.694Z,81.85
2022-11-26T21:10:46.713Z,82.57
2022-11-26T21:13:14.830Z,82.27
2022-11-26T21:15:42.422Z,81.62
2022-11-26T21:18:09.475Z,82.57
2022-11-26T21:20:43.498Z,81.80
2022-11-26T21:23:10.767Z,81.72
2022-11-26T21:25:41.677Z,82.36
2022-11-26T21:28:08.798Z,81.87
2022-11-26T21:30:35.848Z,82.35
2022-11-26T21:33:08.777Z,81.69
2022-11-26T21:35:36.741Z,81.77
2022-11-26T21:38:03.849Z,82.12
2022-11-26T21:40:30.879Z,81.92
2022-11-26T21:42:57.848Z,81.95
2022-11-26T21:45:25.306Z,81.97
2022-11-26T21:47:52.376Z,81.82
2022-11-26T21:50:19.542Z,82.09
2022-11-26T21:52:46.552Z,81.62
2022-11-26T21:55:13.520Z,81.79
2022-11-26T21:57:40.605Z,81.31
2022-11-26T22:00:08.646Z,81.26
2022-11-26T22:02:35.924Z,81.51
2022-11-26T22:05:02.988Z,82.01
2022-11-26T22:07:30.737Z,82.00
2022-11-26T22:09:57.861Z,81.95
2022-11-26T22:12:24.861Z,81.75
2022-11-26T22:14:54.304Z,81.56
2022-11-26T22:17:21.284Z,81.85
2022-11-26T22:19:48.489Z,82.12
2022-11-26T22:22:15.446Z,81.89
2022-11-26T22:24:42.465Z,81.76
2022-11-26T22:27:09.514Z,81.76
2022-11-26T22:29:36.656Z,81.77
2022-11-26T22:32:03.751Z,80.92
2022-11-26T22:34:31.006Z,81.64
2022-11-26T22:36:58.160Z,81.63
2022-11-26T22:39:25.135Z,81.85
2022-11-26T22:41:52.324Z,81.05
2022-11-26T22:44:19.364Z,81.07
2022-11-26T22:46:46.500Z,81.99
2022-11-26T22:49:15.811Z,81.46
2022-11-26T22:51:42.996Z,81.62
2022-11-26T22:54:11.180Z,81.64
2022-11-26T22:56:38.475Z,81.85
2022-11-26T22:59:06.296Z,81.52
2022-11-26T23:01:34.277Z,81.93
2022-11-26T23:04:02.344Z,81.56
2022-11-26T23:06:30.253Z,81.31
2022-11-26T23:08:58.401Z,81.61
2022-11-26T23:11:31.426Z,81.82
2022-11-26T23:13:58.592Z,80.97
2022-11-26T23:16:26.249Z,81.24
2022-11-26T23:18:54.139Z,81.73
2022-11-26T23:21:24.935Z,81.69
2022-11-26T23:23:52.153Z,81.13
2022-11-26T23:26:27.162Z,81.05
2022-11-26T23:28:55.265Z,81.23
2022-11-26T23:31:23.953Z,81.32
2022-11-26T23:33:51.051Z,81.70
2022-11-26T23:36:18.166Z,81.08
2022-11-26T23:38:45.162Z,81.34
2022-11-26T23:41:12.176Z,81.26
2022-11-26T23:43:39.693Z,80.86
2022-11-26T23:46:20.839Z,81.15
2022-11-26T23:48:48.106Z,81.82
2022-11-26T23:51:21.700Z,81.30
2022-11-26T23:53:48.866Z,81.72
2022-11-26T23:56:20.784Z,81.70
2022-11-26T23:58:56.404Z,81.50
